Eland, Wisconsin
Current Conditions -  °F | °C
As of 1:55 PM on Sunday 23 Nov 2014 (Local Time) from KAIG Reporting Station
Moderate Fog Moderate Fog  
Wind Chill: 41°   Ceiling: 300
Heat Index: 41°   Visibility: 0mi
Dew Point: 41°   Wind: 0mph
Humidity: 100%   Direction: NA
Pressure: 29.45"   Gusts: NA
Location:  44.87°N, 89.22°W
Report Text: KAIG 231955Z AUTO 00000KT M1/4SM FG OVC003 05/05 A2945 RMK AO2 T00480048
Loading
Personal Weather Stations






























Interactive Weather Map New forecast layout! Learn more

10-Day Weather Forecast

Advertisements
Track Severe Weather on mobile